sensor_id;sensor_type;location;lat;lon;timestamp;P1;durP1;ratioP1;P2;durP2;ratioP2
10801;SDS011;5453;50.852;7.102;2024-01-10T00:02:15;0.93;;;0.93;;
10801;SDS011;5453;50.852;7.102;2024-01-10T00:04:48;1.98;;;1.85;;
10801;SDS011;5453;50.852;7.102;2024-01-10T00:07:20;4.00;;;3.60;;
10801;SDS011;5453;50.852;7.102;2024-01-10T00:09:52;2.50;;;2.05;;
10801;SDS011;5453;50.852;7.102;2024-01-10T00:12:26;2.28;;;1.45;;
10801;SDS011;5453;50.852;7.102;2024-01-10T00:15:05;2.60;;;2.15;;
10801;SDS011;5453;50.852;7.102;2024-01-10T00:17:39;7.93;;;2.25;;
10801;SDS011;5453;50.852;7.102;2024-01-10T00:20:12;5.28;;;1.88;;
10801;SDS011;5453;50.852;7.102;2024-01-10T00:22:45;2.72;;;2.45;;
10801;SDS011;5453;50.852;7.102;2024-01-10T00:25:17;2.70;;;1.55;;
10801;SDS011;5453;50.852;7.102;2024-01-10T00:27:49;1.30;;;1.20;;
10801;SDS011;5453;50.852;7.102;2024-01-10T00:30:24;6.38;;;2.03;;
10801;SDS011;5453;50.852;7.102;2024-01-10T00:32:57;2.80;;;2.03;;
10801;SDS011;5453;50.852;7.102;2024-01-10T00:35:28;1.70;;;1.52;;
10801;SDS011;5453;50.852;7.102;2024-01-10T00:38:00;2.92;;;2.15;;
10801;SDS011;5453;50.852;7.102;2024-01-10T00:40:36;2.22;;;1.42;;
10801;SDS011;5453;50.852;7.102;2024-01-10T00:43:08;2.58;;;1.88;;
10801;SDS011;5453;50.852;7.102;2024-01-10T00:45:42;2.20;;;1.95;;
10801;SDS011;5453;50.852;7.102;2024-01-10T00:48:14;7.38;;;2.40;;
10801;SDS011;5453;50.852;7.102;2024-01-10T00:50:47;3.85;;;1.77;;
10801;SDS011;5453;50.852;7.102;2024-01-10T00:53:20;2.38;;;2.17;;
10801;SDS011;5453;50.852;7.102;2024-01-10T00:55:52;3.88;;;1.25;;
10801;SDS011;5453;50.852;7.102;2024-01-10T00:58:24;1.33;;;1.10;;
10801;SDS011;5453;50.852;7.102;2024-01-10T01:00:58;3.65;;;2.08;;
10801;SDS011;5453;50.852;7.102;2024-01-10T01:03:30;1.42;;;1.40;;
10801;SDS011;5453;50.852;7.102;2024-01-10T01:06:03;1.20;;;0.85;;
10801;SDS011;5453;50.852;7.102;2024-01-10T01:08:36;1.13;;;1.02;;
10801;SDS011;5453;50.852;7.102;2024-01-10T01:11:08;1.25;;;1.15;;
10801;SDS011;5453;50.852;7.102;2024-01-10T01:13:42;6.60;;;1.55;;
10801;SDS011;5453;50.852;7.102;2024-01-10T01:16:16;1.48;;;1.17;;
10801;SDS011;5453;50.852;7.102;2024-01-10T01:18:51;3.53;;;1.33;;
10801;SDS011;5453;50.852;7.102;2024-01-10T01:21:24;2.28;;;1.95;;
10801;SDS011;5453;50.852;7.102;2024-01-10T01:23:56;2.05;;;1.20;;
10801;SDS011;5453;50.852;7.102;2024-01-10T01:26:28;0.93;;;0.93;;
10801;SDS011;5453;50.852;7.102;2024-01-10T01:29:01;4.20;;;2.20;;
10801;SDS011;5453;50.852;7.102;2024-01-10T01:31:35;3.30;;;2.03;;
10801;SDS011;5453;50.852;7.102;2024-01-10T01:34:07;5.22;;;2.38;;
10801;SDS011;5453;50.852;7.102;2024-01-10T01:36:40;4.63;;;1.75;;
10801;SDS011;5453;50.852;7.102;2024-01-10T01:39:12;2.38;;;2.10;;
10801;SDS011;5453;50.852;7.102;2024-01-10T01:41:44;3.20;;;2.30;;
10801;SDS011;5453;50.852;7.102;2024-01-10T01:44:18;1.05;;;1.05;;
10801;SDS011;5453;50.852;7.102;2024-01-10T01:46:51;2.83;;;2.10;;
10801;SDS011;5453;50.852;7.102;2024-01-10T01:49:24;3.50;;;2.38;;
10801;SDS011;5453;50.852;7.102;2024-01-10T01:51:57;1.52;;;1.42;;
10801;SDS011;5453;50.852;7.102;2024-01-10T01:54:30;0.98;;;0.65;;
10801;SDS011;5453;50.852;7.102;2024-01-10T01:57:04;2.85;;;1.83;;
10801;SDS011;5453;50.852;7.102;2024-01-10T01:59:36;3.55;;;1.42;;
10801;SDS011;5453;50.852;7.102;2024-01-10T02:02:10;11.30;;;2.17;;
10801;SDS011;5453;50.852;7.102;2024-01-10T02:04:45;1.60;;;1.50;;
10801;SDS011;5453;50.852;7.102;2024-01-10T02:07:18;9.52;;;2.67;;
10801;SDS011;5453;50.852;7.102;2024-01-10T02:09:50;5.00;;;1.75;;
10801;SDS011;5453;50.852;7.102;2024-01-10T02:12:24;1.33;;;1.15;;
10801;SDS011;5453;50.852;7.102;2024-01-10T02:14:56;4.60;;;2.60;;
10801;SDS011;5453;50.852;7.102;2024-01-10T02:17:30;4.57;;;1.92;;
10801;SDS011;5453;50.852;7.102;2024-01-10T02:20:09;3.60;;;1.92;;
10801;SDS011;5453;50.852;7.102;2024-01-10T02:22:42;3.08;;;2.10;;
10801;SDS011;5453;50.852;7.102;2024-01-10T02:25:16;0.40;;;0.35;;
10801;SDS011;5453;50.852;7.102;2024-01-10T02:27:48;3.05;;;1.85;;
10801;SDS011;5453;50.852;7.102;2024-01-10T02:30:21;1.63;;;1.52;;
10801;SDS011;5453;50.852;7.102;2024-01-10T02:32:53;1.33;;;0.85;;
10801;SDS011;5453;50.852;7.102;2024-01-10T02:35:26;1.55;;;1.40;;
10801;SDS011;5453;50.852;7.102;2024-01-10T02:37:58;3.65;;;1.33;;
10801;SDS011;5453;50.852;7.102;2024-01-10T02:40:32;2.08;;;1.75;;
10801;SDS011;5453;50.852;7.102;2024-01-10T02:43:05;4.45;;;1.10;;
10801;SDS011;5453;50.852;7.102;2024-01-10T02:45:38;1.58;;;1.05;;
10801;SDS011;5453;50.852;7.102;2024-01-10T02:48:10;1.58;;;1.48;;
10801;SDS011;5453;50.852;7.102;2024-01-10T02:50:42;5.07;;;1.60;;
10801;SDS011;5453;50.852;7.102;2024-01-10T02:53:15;0.52;;;0.47;;
10801;SDS011;5453;50.852;7.102;2024-01-10T02:55:48;1.25;;;1.15;;
10801;SDS011;5453;50.852;7.102;2024-01-10T02:58:21;2.42;;;2.22;;
10801;SDS011;5453;50.852;7.102;2024-01-10T03:00:55;1.70;;;1.38;;
10801;SDS011;5453;50.852;7.102;2024-01-10T03:03:28;1.77;;;1.27;;
10801;SDS011;5453;50.852;7.102;2024-01-10T03:06:01;4.82;;;1.63;;
10801;SDS011;5453;50.852;7.102;2024-01-10T03:08:34;1.45;;;1.13;;
10801;SDS011;5453;50.852;7.102;2024-01-10T03:11:07;1.08;;;0.98;;
10801;SDS011;5453;50.852;7.102;2024-01-10T03:13:40;1.80;;;1.27;;
10801;SDS011;5453;50.852;7.102;2024-01-10T03:16:14;0.95;;;0.90;;
10801;SDS011;5453;50.852;7.102;2024-01-10T03:18:47;6.65;;;1.38;;
10801;SDS011;5453;50.852;7.102;2024-01-10T03:21:20;1.40;;;1.40;;
10801;SDS011;5453;50.852;7.102;2024-01-10T03:23:55;0.73;;;0.73;;
10801;SDS011;5453;50.852;7.102;2024-01-10T03:26:29;1.17;;;1.17;;
10801;SDS011;5453;50.852;7.102;2024-01-10T03:29:05;1.00;;;1.00;;
10801;SDS011;5453;50.852;7.102;2024-01-10T03:31:37;1.45;;;1.35;;
10801;SDS011;5453;50.852;7.102;2024-01-10T03:34:10;1.77;;;1.35;;
10801;SDS011;5453;50.852;7.102;2024-01-10T03:36:42;6.05;;;2.20;;
10801;SDS011;5453;50.852;7.102;2024-01-10T03:39:14;1.38;;;1.15;;
10801;SDS011;5453;50.852;7.102;2024-01-10T03:41:48;1.48;;;1.38;;
10801;SDS011;5453;50.852;7.102;2024-01-10T03:44:20;1.35;;;1.33;;
10801;SDS011;5453;50.852;7.102;2024-01-10T03:46:53;2.05;;;1.88;;
10801;SDS011;5453;50.852;7.102;2024-01-10T03:49:25;1.23;;;1.10;;
10801;SDS011;5453;50.852;7.102;2024-01-10T03:51:58;0.77;;;0.75;;
10801;SDS011;5453;50.852;7.102;2024-01-10T03:54:30;2.03;;;1.17;;
10801;SDS011;5453;50.852;7.102;2024-01-10T03:57:05;2.03;;;1.48;;
10801;SDS011;5453;50.852;7.102;2024-01-10T03:59:37;1.35;;;1.13;;
10801;SDS011;5453;50.852;7.102;2024-01-10T04:02:10;2.50;;;1.00;;
10801;SDS011;5453;50.852;7.102;2024-01-10T04:04:42;2.53;;;1.35;;
10801;SDS011;5453;50.852;7.102;2024-01-10T04:07:15;3.13;;;2.30;;
10801;SDS011;5453;50.852;7.102;2024-01-10T04:09:47;1.80;;;0.93;;
10801;SDS011;5453;50.852;7.102;2024-01-10T04:12:21;0.70;;;0.70;;
10801;SDS011;5453;50.852;7.102;2024-01-10T04:14:56;1.25;;;1.15;;
10801;SDS011;5453;50.852;7.102;2024-01-10T04:17:29;1.25;;;1.17;;
10801;SDS011;5453;50.852;7.102;2024-01-10T04:20:01;3.35;;;2.55;;
10801;SDS011;5453;50.852;7.102;2024-01-10T04:22:34;6.32;;;1.52;;
10801;SDS011;5453;50.852;7.102;2024-01-10T04:25:10;1.70;;;1.55;;
10801;SDS011;5453;50.852;7.102;2024-01-10T04:27:44;1.63;;;1.10;;
10801;SDS011;5453;50.852;7.102;2024-01-10T04:30:16;5.45;;;1.60;;
10801;SDS011;5453;50.852;7.102;2024-01-10T04:32:49;2.88;;;1.60;;
10801;SDS011;5453;50.852;7.102;2024-01-10T04:35:21;2.72;;;1.65;;
10801;SDS011;5453;50.852;7.102;2024-01-10T04:37:53;2.15;;;1.38;;
10801;SDS011;5453;50.852;7.102;2024-01-10T04:40:26;2.15;;;1.77;;
10801;SDS011;5453;50.852;7.102;2024-01-10T04:43:00;2.20;;;2.03;;
10801;SDS011;5453;50.852;7.102;2024-01-10T04:45:32;2.28;;;1.85;;
10801;SDS011;5453;50.852;7.102;2024-01-10T04:48:04;2.58;;;1.80;;
10801;SDS011;5453;50.852;7.102;2024-01-10T04:50:37;3.65;;;1.40;;
10801;SDS011;5453;50.852;7.102;2024-01-10T04:53:10;4.03;;;1.90;;
10801;SDS011;5453;50.852;7.102;2024-01-10T04:55:42;2.65;;;2.13;;
10801;SDS011;5453;50.852;7.102;2024-01-10T04:58:16;3.28;;;2.97;;
10801;SDS011;5453;50.852;7.102;2024-01-10T05:00:48;7.05;;;2.90;;
10801;SDS011;5453;50.852;7.102;2024-01-10T05:03:21;4.75;;;2.45;;
10801;SDS011;5453;50.852;7.102;2024-01-10T05:05:53;1.98;;;1.80;;
10801;SDS011;5453;50.852;7.102;2024-01-10T05:08:25;4.85;;;2.78;;
10801;SDS011;5453;50.852;7.102;2024-01-10T05:10:58;6.68;;;1.63;;
10801;SDS011;5453;50.852;7.102;2024-01-10T05:13:32;6.90;;;2.45;;
10801;SDS011;5453;50.852;7.102;2024-01-10T05:16:04;4.15;;;1.58;;
10801;SDS011;5453;50.852;7.102;2024-01-10T05:18:37;3.80;;;1.48;;
10801;SDS011;5453;50.852;7.102;2024-01-10T05:21:10;1.73;;;1.50;;
10801;SDS011;5453;50.852;7.102;2024-01-10T05:23:42;4.10;;;1.25;;
10801;SDS011;5453;50.852;7.102;2024-01-10T05:26:14;1.25;;;1.15;;
10801;SDS011;5453;50.852;7.102;2024-01-10T05:28:48;2.70;;;2.20;;
10801;SDS011;5453;50.852;7.102;2024-01-10T05:31:20;1.67;;;1.42;;
10801;SDS011;5453;50.852;7.102;2024-01-10T05:33:53;2.00;;;1.83;;
10801;SDS011;5453;50.852;7.102;2024-01-10T05:36:25;2.38;;;1.17;;
10801;SDS011;5453;50.852;7.102;2024-01-10T05:38:58;4.78;;;2.10;;
10801;SDS011;5453;50.852;7.102;2024-01-10T05:41:30;1.42;;;1.08;;
10801;SDS011;5453;50.852;7.102;2024-01-10T05:44:04;1.48;;;1.38;;
10801;SDS011;5453;50.852;7.102;2024-01-10T05:46:36;1.67;;;1.58;;
10801;SDS011;5453;50.852;7.102;2024-01-10T05:49:08;2.00;;;1.85;;
10801;SDS011;5453;50.852;7.102;2024-01-10T05:51:42;1.67;;;1.58;;
10801;SDS011;5453;50.852;7.102;2024-01-10T05:54:14;2.70;;;1.08;;
10801;SDS011;5453;50.852;7.102;2024-01-10T05:56:48;2.80;;;2.60;;
10801;SDS011;5453;50.852;7.102;2024-01-10T05:59:22;2.50;;;1.50;;
10801;SDS011;5453;50.852;7.102;2024-01-10T06:01:55;4.45;;;1.88;;
10801;SDS011;5453;50.852;7.102;2024-01-10T06:04:28;1.58;;;1.35;;
10801;SDS011;5453;50.852;7.102;2024-01-10T06:07:01;1.38;;;1.27;;
10801;SDS011;5453;50.852;7.102;2024-01-10T06:09:34;3.45;;;1.55;;
10801;SDS011;5453;50.852;7.102;2024-01-10T06:12:06;2.08;;;1.92;;
10801;SDS011;5453;50.852;7.102;2024-01-10T06:14:40;3.15;;;2.40;;
10801;SDS011;5453;50.852;7.102;2024-01-10T06:17:13;0.90;;;0.90;;
10801;SDS011;5453;50.852;7.102;2024-01-10T06:19:46;2.40;;;2.03;;
10801;SDS011;5453;50.852;7.102;2024-01-10T06:22:19;5.38;;;2.28;;
10801;SDS011;5453;50.852;7.102;2024-01-10T06:24:55;1.30;;;1.20;;
10801;SDS011;5453;50.852;7.102;2024-01-10T06:27:27;1.55;;;1.17;;
10801;SDS011;5453;50.852;7.102;2024-01-10T06:30:01;2.08;;;1.98;;
10801;SDS011;5453;50.852;7.102;2024-01-10T06:32:35;1.75;;;1.63;;
10801;SDS011;5453;50.852;7.102;2024-01-10T06:35:07;1.77;;;1.65;;
10801;SDS011;5453;50.852;7.102;2024-01-10T06:37:40;1.75;;;1.58;;
10801;SDS011;5453;50.852;7.102;2024-01-10T06:40:14;1.95;;;1.77;;
10801;SDS011;5453;50.852;7.102;2024-01-10T06:42:47;1.77;;;1.33;;
10801;SDS011;5453;50.852;7.102;2024-01-10T06:45:20;2.95;;;2.00;;
10801;SDS011;5453;50.852;7.102;2024-01-10T06:47:53;4.60;;;1.33;;
10801;SDS011;5453;50.852;7.102;2024-01-10T06:50:25;1.00;;;1.00;;
10801;SDS011;5453;50.852;7.102;2024-01-10T06:52:58;2.90;;;1.23;;
10801;SDS011;5453;50.852;7.102;2024-01-10T06:55:30;1.52;;;1.38;;
10801;SDS011;5453;50.852;7.102;2024-01-10T06:58:02;3.35;;;2.25;;
10801;SDS011;5453;50.852;7.102;2024-01-10T07:00:36;1.17;;;1.00;;
10801;SDS011;5453;50.852;7.102;2024-01-10T07:03:09;3.60;;;1.30;;
10801;SDS011;5453;50.852;7.102;2024-01-10T07:05:41;2.83;;;2.28;;
10801;SDS011;5453;50.852;7.102;2024-01-10T07:08:14;3.85;;;2.20;;
10801;SDS011;5453;50.852;7.102;2024-01-10T07:10:47;3.83;;;1.77;;
10801;SDS011;5453;50.852;7.102;2024-01-10T07:13:20;2.55;;;2.35;;
10801;SDS011;5453;50.852;7.102;2024-01-10T07:15:53;1.33;;;1.23;;
10801;SDS011;5453;50.852;7.102;2024-01-10T07:18:26;3.40;;;2.80;;
10801;SDS011;5453;50.852;7.102;2024-01-10T07:20:58;3.22;;;1.95;;
10801;SDS011;5453;50.852;7.102;2024-01-10T07:23:30;4.82;;;1.50;;
10801;SDS011;5453;50.852;7.102;2024-01-10T07:26:04;2.33;;;1.50;;
10801;SDS011;5453;50.852;7.102;2024-01-10T07:28:36;2.38;;;2.13;;
10801;SDS011;5453;50.852;7.102;2024-01-10T07:31:10;2.42;;;2.20;;
10801;SDS011;5453;50.852;7.102;2024-01-10T07:33:43;5.05;;;1.38;;
10801;SDS011;5453;50.852;7.102;2024-01-10T07:36:15;2.88;;;2.65;;
10801;SDS011;5453;50.852;7.102;2024-01-10T07:38:48;1.25;;;1.02;;
10801;SDS011;5453;50.852;7.102;2024-01-10T07:41:23;4.32;;;2.78;;
10801;SDS011;5453;50.852;7.102;2024-01-10T07:43:56;2.25;;;2.08;;
10801;SDS011;5453;50.852;7.102;2024-01-10T07:46:30;3.08;;;1.40;;
10801;SDS011;5453;50.852;7.102;2024-01-10T07:49:02;1.67;;;1.58;;
10801;SDS011;5453;50.852;7.102;2024-01-10T07:51:35;1.73;;;1.38;;
10801;SDS011;5453;50.852;7.102;2024-01-10T07:54:07;1.60;;;1.50;;
10801;SDS011;5453;50.852;7.102;2024-01-10T07:56:39;3.88;;;1.92;;
10801;SDS011;5453;50.852;7.102;2024-01-10T07:59:12;2.08;;;1.42;;
10801;SDS011;5453;50.852;7.102;2024-01-10T08:01:55;1.63;;;1.42;;
10801;SDS011;5453;50.852;7.102;2024-01-10T08:04:28;1.17;;;1.05;;
10801;SDS011;5453;50.852;7.102;2024-01-10T08:07:01;3.83;;;2.83;;
10801;SDS011;5453;50.852;7.102;2024-01-10T08:09:33;1.92;;;1.27;;
10801;SDS011;5453;50.852;7.102;2024-01-10T08:12:06;3.75;;;1.70;;
10801;SDS011;5453;50.852;7.102;2024-01-10T08:14:39;4.32;;;2.22;;
10801;SDS011;5453;50.852;7.102;2024-01-10T08:17:13;2.13;;;2.03;;
10801;SDS011;5453;50.852;7.102;2024-01-10T08:19:46;5.85;;;2.03;;
10801;SDS011;5453;50.852;7.102;2024-01-10T08:22:19;5.50;;;3.13;;
10801;SDS011;5453;50.852;7.102;2024-01-10T08:24:53;5.10;;;2.63;;
10801;SDS011;5453;50.852;7.102;2024-01-10T08:27:26;3.22;;;2.30;;
10801;SDS011;5453;50.852;7.102;2024-01-10T08:29:58;6.97;;;2.45;;
10801;SDS011;5453;50.852;7.102;2024-01-10T08:32:32;3.30;;;2.35;;
10801;SDS011;5453;50.852;7.102;2024-01-10T08:35:05;7.18;;;2.53;;
10801;SDS011;5453;50.852;7.102;2024-01-10T08:37:39;3.33;;;2.33;;
10801;SDS011;5453;50.852;7.102;2024-01-10T08:40:12;3.47;;;2.72;;
10801;SDS011;5453;50.852;7.102;2024-01-10T08:42:46;8.68;;;2.42;;
10801;SDS011;5453;50.852;7.102;2024-01-10T08:45:19;3.42;;;2.00;;
10801;SDS011;5453;50.852;7.102;2024-01-10T08:47:52;5.35;;;2.08;;
10801;SDS011;5453;50.852;7.102;2024-01-10T08:50:25;13.32;;;2.03;;
10801;SDS011;5453;50.852;7.102;2024-01-10T08:52:57;6.40;;;2.35;;
10801;SDS011;5453;50.852;7.102;2024-01-10T08:55:31;7.18;;;2.58;;
10801;SDS011;5453;50.852;7.102;2024-01-10T08:58:04;3.72;;;2.40;;
10801;SDS011;5453;50.852;7.102;2024-01-10T09:00:37;2.10;;;1.77;;
10801;SDS011;5453;50.852;7.102;2024-01-10T09:03:11;5.60;;;2.28;;
10801;SDS011;5453;50.852;7.102;2024-01-10T09:05:43;1.58;;;1.40;;
10801;SDS011;5453;50.852;7.102;2024-01-10T09:08:16;6.00;;;2.42;;
10801;SDS011;5453;50.852;7.102;2024-01-10T09:10:48;4.78;;;2.40;;
10801;SDS011;5453;50.852;7.102;2024-01-10T09:13:21;3.38;;;1.95;;
10801;SDS011;5453;50.852;7.102;2024-01-10T09:15:53;3.83;;;2.88;;
10801;SDS011;5453;50.852;7.102;2024-01-10T09:18:27;3.40;;;2.55;;
10801;SDS011;5453;50.852;7.102;2024-01-10T09:20:59;6.82;;;2.83;;
10801;SDS011;5453;50.852;7.102;2024-01-10T09:23:32;4.43;;;2.70;;
10801;SDS011;5453;50.852;7.102;2024-01-10T09:26:04;2.25;;;1.70;;
10801;SDS011;5453;50.852;7.102;2024-01-10T09:28:36;4.38;;;1.48;;
10801;SDS011;5453;50.852;7.102;2024-01-10T09:31:10;2.17;;;2.00;;
10801;SDS011;5453;50.852;7.102;2024-01-10T09:33:44;3.38;;;2.88;;
10801;SDS011;5453;50.852;7.102;2024-01-10T09:36:16;2.85;;;2.53;;
10801;SDS011;5453;50.852;7.102;2024-01-10T09:38:48;4.50;;;2.05;;
10801;SDS011;5453;50.852;7.102;2024-01-10T09:41:21;7.35;;;2.40;;
10801;SDS011;5453;50.852;7.102;2024-01-10T09:43:57;6.25;;;2.95;;
10801;SDS011;5453;50.852;7.102;2024-01-10T09:46:30;3.53;;;3.03;;
10801;SDS011;5453;50.852;7.102;2024-01-10T09:49:07;3.63;;;2.40;;
10801;SDS011;5453;50.852;7.102;2024-01-10T09:51:40;6.35;;;2.53;;
10801;SDS011;5453;50.852;7.102;2024-01-10T09:54:13;5.10;;;2.40;;
10801;SDS011;5453;50.852;7.102;2024-01-10T09:56:47;5.60;;;3.00;;
10801;SDS011;5453;50.852;7.102;2024-01-10T09:59:19;4.05;;;3.05;;
10801;SDS011;5453;50.852;7.102;2024-01-10T10:01:52;3.65;;;2.22;;
10801;SDS011;5453;50.852;7.102;2024-01-10T10:04:26;4.20;;;2.22;;
10801;SDS011;5453;50.852;7.102;2024-01-10T10:07:00;8.43;;;2.63;;
10801;SDS011;5453;50.852;7.102;2024-01-10T10:09:32;5.72;;;2.83;;
10801;SDS011;5453;50.852;7.102;2024-01-10T10:12:05;3.45;;;2.38;;
10801;SDS011;5453;50.852;7.102;2024-01-10T10:14:38;9.13;;;3.45;;
10801;SDS011;5453;50.852;7.102;2024-01-10T10:17:13;5.40;;;2.47;;
10801;SDS011;5453;50.852;7.102;2024-01-10T10:19:51;5.68;;;2.28;;
10801;SDS011;5453;50.852;7.102;2024-01-10T10:22:35;4.32;;;2.97;;
10801;SDS011;5453;50.852;7.102;2024-01-10T10:25:07;6.93;;;3.47;;
10801;SDS011;5453;50.852;7.102;2024-01-10T10:27:40;9.20;;;3.08;;
10801;SDS011;5453;50.852;7.102;2024-01-10T10:30:13;7.43;;;3.35;;
10801;SDS011;5453;50.852;7.102;2024-01-10T10:32:46;7.13;;;3.13;;
10801;SDS011;5453;50.852;7.102;2024-01-10T10:35:19;10.43;;;3.20;;
10801;SDS011;5453;50.852;7.102;2024-01-10T10:37:52;5.03;;;3.63;;
10801;SDS011;5453;50.852;7.102;2024-01-10T10:40:25;5.47;;;2.65;;
10801;SDS011;5453;50.852;7.102;2024-01-10T10:42:57;3.40;;;1.90;;
10801;SDS011;5453;50.852;7.102;2024-01-10T10:45:30;7.95;;;2.50;;
10801;SDS011;5453;50.852;7.102;2024-01-10T10:48:04;9.07;;;2.80;;
10801;SDS011;5453;50.852;7.102;2024-01-10T10:50:42;8.85;;;3.50;;
10801;SDS011;5453;50.852;7.102;2024-01-10T10:53:22;4.30;;;2.70;;
10801;SDS011;5453;50.852;7.102;2024-01-10T10:55:57;5.07;;;2.30;;
10801;SDS011;5453;50.852;7.102;2024-01-10T10:58:32;3.60;;;3.25;;
10801;SDS011;5453;50.852;7.102;2024-01-10T11:01:07;6.13;;;3.38;;
10801;SDS011;5453;50.852;7.102;2024-01-10T11:03:41;5.90;;;2.92;;
10801;SDS011;5453;50.852;7.102;2024-01-10T11:06:16;3.33;;;2.40;;
10801;SDS011;5453;50.852;7.102;2024-01-10T11:08:52;7.88;;;3.58;;
10801;SDS011;5453;50.852;7.102;2024-01-10T11:11:34;6.25;;;3.70;;
10801;SDS011;5453;50.852;7.102;2024-01-10T11:14:28;6.00;;;2.55;;
10801;SDS011;5453;50.852;7.102;2024-01-10T11:17:19;4.60;;;3.58;;
10801;SDS011;5453;50.852;7.102;2024-01-10T11:23:39;24.63;;;6.78;;
10801;SDS011;5453;50.852;7.102;2024-01-10T11:26:15;12.45;;;4.90;;
10801;SDS011;5453;50.852;7.102;2024-01-10T11:28:49;11.18;;;5.25;;
10801;SDS011;5453;50.852;7.102;2024-01-10T11:31:27;7.95;;;3.38;;
10801;SDS011;5453;50.852;7.102;2024-01-10T11:34:03;9.60;;;3.97;;
10801;SDS011;5453;50.852;7.102;2024-01-10T11:36:37;7.07;;;3.33;;
10801;SDS011;5453;50.852;7.102;2024-01-10T11:39:10;6.25;;;3.65;;
10801;SDS011;5453;50.852;7.102;2024-01-10T11:41:44;6.70;;;3.60;;
10801;SDS011;5453;50.852;7.102;2024-01-10T11:44:25;12.65;;;4.65;;
10801;SDS011;5453;50.852;7.102;2024-01-10T11:47:01;8.20;;;4.20;;
10801;SDS011;5453;50.852;7.102;2024-01-10T11:49:35;9.40;;;3.30;;
10801;SDS011;5453;50.852;7.102;2024-01-10T11:52:08;12.00;;;4.40;;
10801;SDS011;5453;50.852;7.102;2024-01-10T11:54:43;6.05;;;3.88;;
10801;SDS011;5453;50.852;7.102;2024-01-10T11:57:20;14.60;;;3.83;;
10801;SDS011;5453;50.852;7.102;2024-01-10T11:59:56;7.30;;;3.97;;
10801;SDS011;5453;50.852;7.102;2024-01-10T12:02:30;7.13;;;4.65;;
10801;SDS011;5453;50.852;7.102;2024-01-10T12:05:03;9.70;;;3.55;;
10801;SDS011;5453;50.852;7.102;2024-01-10T12:07:37;7.65;;;3.53;;
10801;SDS011;5453;50.852;7.102;2024-01-10T12:10:11;11.98;;;4.03;;
10801;SDS011;5453;50.852;7.102;2024-01-10T12:12:43;11.93;;;3.88;;
10801;SDS011;5453;50.852;7.102;2024-01-10T12:15:16;10.65;;;4.25;;
10801;SDS011;5453;50.852;7.102;2024-01-10T12:17:49;13.90;;;4.05;;
10801;SDS011;5453;50.852;7.102;2024-01-10T12:20:23;13.10;;;4.45;;
10801;SDS011;5453;50.852;7.102;2024-01-10T12:22:56;18.75;;;5.40;;
10801;SDS011;5453;50.852;7.102;2024-01-10T12:25:29;11.15;;;4.43;;
10801;SDS011;5453;50.852;7.102;2024-01-10T12:28:02;6.50;;;4.13;;
10801;SDS011;5453;50.852;7.102;2024-01-10T12:30:35;8.75;;;3.25;;
10801;SDS011;5453;50.852;7.102;2024-01-10T12:33:08;13.88;;;4.50;;
10801;SDS011;5453;50.852;7.102;2024-01-10T12:35:41;11.80;;;3.67;;
10801;SDS011;5453;50.852;7.102;2024-01-10T12:38:13;11.07;;;4.00;;
10801;SDS011;5453;50.852;7.102;2024-01-10T12:40:47;10.98;;;3.67;;
10801;SDS011;5453;50.852;7.102;2024-01-10T12:43:20;8.40;;;3.45;;
10801;SDS011;5453;50.852;7.102;2024-01-10T12:46:02;8.32;;;3.63;;
10801;SDS011;5453;50.852;7.102;2024-01-10T12:48:36;7.28;;;3.00;;
10801;SDS011;5453;50.852;7.102;2024-01-10T12:51:12;11.68;;;4.05;;
10801;SDS011;5453;50.852;7.102;2024-01-10T12:53:44;10.43;;;3.97;;
10801;SDS011;5453;50.852;7.102;2024-01-10T12:56:21;5.65;;;3.40;;
10801;SDS011;5453;50.852;7.102;2024-01-10T12:58:54;6.43;;;3.42;;
10801;SDS011;5453;50.852;7.102;2024-01-10T13:01:26;11.32;;;3.85;;
10801;SDS011;5453;50.852;7.102;2024-01-10T13:04:02;10.65;;;4.53;;
10801;SDS011;5453;50.852;7.102;2024-01-10T13:06:35;8.73;;;3.97;;
10801;SDS011;5453;50.852;7.102;2024-01-10T13:09:07;6.07;;;3.47;;
10801;SDS011;5453;50.852;7.102;2024-01-10T13:11:41;8.38;;;4.70;;
10801;SDS011;5453;50.852;7.102;2024-01-10T13:14:18;8.25;;;3.78;;
10801;SDS011;5453;50.852;7.102;2024-01-10T13:19:24;9.13;;;3.33;;
10801;SDS011;5453;50.852;7.102;2024-01-10T13:21:56;6.50;;;2.72;;
10801;SDS011;5453;50.852;7.102;2024-01-10T13:24:29;11.75;;;4.95;;
10801;SDS011;5453;50.852;7.102;2024-01-10T13:27:03;6.90;;;3.88;;
10801;SDS011;5453;50.852;7.102;2024-01-10T13:29:35;10.70;;;4.13;;
10801;SDS011;5453;50.852;7.102;2024-01-10T13:32:08;13.57;;;3.85;;
10801;SDS011;5453;50.852;7.102;2024-01-10T13:34:41;13.23;;;5.18;;
10801;SDS011;5453;50.852;7.102;2024-01-10T13:37:14;11.25;;;4.10;;
10801;SDS011;5453;50.852;7.102;2024-01-10T13:39:46;9.82;;;4.07;;
10801;SDS011;5453;50.852;7.102;2024-01-10T13:42:20;9.00;;;4.13;;
10801;SDS011;5453;50.852;7.102;2024-01-10T13:44:53;13.88;;;4.72;;
10801;SDS011;5453;50.852;7.102;2024-01-10T13:47:26;7.95;;;3.50;;
10801;SDS011;5453;50.852;7.102;2024-01-10T13:49:58;9.68;;;3.67;;
10801;SDS011;5453;50.852;7.102;2024-01-10T13:52:30;12.98;;;3.63;;
10801;SDS011;5453;50.852;7.102;2024-01-10T13:55:03;6.15;;;3.42;;
10801;SDS011;5453;50.852;7.102;2024-01-10T13:57:37;9.48;;;4.13;;
10801;SDS011;5453;50.852;7.102;2024-01-10T14:00:10;9.40;;;3.70;;
10801;SDS011;5453;50.852;7.102;2024-01-10T14:02:45;9.38;;;4.15;;
10801;SDS011;5453;50.852;7.102;2024-01-10T14:05:17;6.35;;;2.97;;
10801;SDS011;5453;50.852;7.102;2024-01-10T14:07:49;6.70;;;3.58;;
10801;SDS011;5453;50.852;7.102;2024-01-10T14:10:22;8.75;;;4.05;;
10801;SDS011;5453;50.852;7.102;2024-01-10T14:12:55;10.48;;;4.20;;
10801;SDS011;5453;50.852;7.102;2024-01-10T14:15:28;13.38;;;5.53;;
10801;SDS011;5453;50.852;7.102;2024-01-10T14:18:00;6.45;;;3.83;;
10801;SDS011;5453;50.852;7.102;2024-01-10T14:20:33;10.63;;;4.13;;
10801;SDS011;5453;50.852;7.102;2024-01-10T14:23:06;7.35;;;4.25;;
10801;SDS011;5453;50.852;7.102;2024-01-10T14:25:38;9.63;;;4.65;;
10801;SDS011;5453;50.852;7.102;2024-01-10T14:28:12;8.38;;;3.80;;
10801;SDS011;5453;50.852;7.102;2024-01-10T14:30:44;11.10;;;4.47;;
10801;SDS011;5453;50.852;7.102;2024-01-10T14:33:16;9.15;;;3.83;;
10801;SDS011;5453;50.852;7.102;2024-01-10T14:35:49;10.20;;;4.13;;
10801;SDS011;5453;50.852;7.102;2024-01-10T14:38:24;7.35;;;2.90;;
10801;SDS011;5453;50.852;7.102;2024-01-10T14:40:57;7.25;;;3.72;;
10801;SDS011;5453;50.852;7.102;2024-01-10T14:43:31;9.38;;;4.47;;
10801;SDS011;5453;50.852;7.102;2024-01-10T14:46:04;6.95;;;3.60;;
10801;SDS011;5453;50.852;7.102;2024-01-10T14:48:36;10.40;;;5.20;;
10801;SDS011;5453;50.852;7.102;2024-01-10T14:51:09;9.77;;;4.13;;
10801;SDS011;5453;50.852;7.102;2024-01-10T14:53:41;10.25;;;4.13;;
10801;SDS011;5453;50.852;7.102;2024-01-10T14:56:16;11.10;;;3.72;;
10801;SDS011;5453;50.852;7.102;2024-01-10T15:01:22;8.63;;;4.13;;
10801;SDS011;5453;50.852;7.102;2024-01-10T15:03:55;9.93;;;4.95;;
10801;SDS011;5453;50.852;7.102;2024-01-10T15:06:28;5.80;;;3.58;;
10801;SDS011;5453;50.852;7.102;2024-01-10T15:09:00;6.22;;;3.10;;
10801;SDS011;5453;50.852;7.102;2024-01-10T15:11:33;11.93;;;5.22;;
10801;SDS011;5453;50.852;7.102;2024-01-10T15:14:07;12.05;;;3.92;;
10801;SDS011;5453;50.852;7.102;2024-01-10T15:16:39;8.23;;;4.15;;
10801;SDS011;5453;50.852;7.102;2024-01-10T15:19:12;6.30;;;3.50;;
10801;SDS011;5453;50.852;7.102;2024-01-10T15:21:44;8.07;;;4.35;;
10801;SDS011;5453;50.852;7.102;2024-01-10T15:24:20;8.40;;;4.00;;
10801;SDS011;5453;50.852;7.102;2024-01-10T15:26:53;8.02;;;4.10;;
10801;SDS011;5453;50.852;7.102;2024-01-10T15:29:28;11.45;;;5.43;;
10801;SDS011;5453;50.852;7.102;2024-01-10T15:32:00;12.35;;;4.70;;
10801;SDS011;5453;50.852;7.102;2024-01-10T15:34:36;13.48;;;4.72;;
10801;SDS011;5453;50.852;7.102;2024-01-10T15:37:08;9.85;;;4.03;;
10801;SDS011;5453;50.852;7.102;2024-01-10T15:39:41;8.38;;;3.55;;
10801;SDS011;5453;50.852;7.102;2024-01-10T15:42:13;8.98;;;3.88;;
10801;SDS011;5453;50.852;7.102;2024-01-10T15:44:47;14.55;;;5.85;;
10801;SDS011;5453;50.852;7.102;2024-01-10T15:47:19;10.27;;;3.55;;